sensor_id;sensor_type;location;lat;lon;timestamp;P1;durP1;ratioP1;P2;durP2;ratioP2
16480;SDS011;44634;54.110;12.138;2023-04-01T00:00:20;6.20;;;4.50;;
16480;SDS011;44634;54.110;12.138;2023-04-01T00:02:50;6.37;;;4.43;;
16480;SDS011;44634;54.110;12.138;2023-04-01T00:05:18;4.30;;;3.90;;
16480;SDS011;44634;54.110;12.138;2023-04-01T00:07:46;4.70;;;4.00;;
16480;SDS011;44634;54.110;12.138;2023-04-01T00:10:14;4.70;;;4.30;;
16480;SDS011;44634;54.110;12.138;2023-04-01T00:12:42;6.63;;;4.53;;
16480;SDS011;44634;54.110;12.138;2023-04-01T00:15:10;5.53;;;4.20;;
16480;SDS011;44634;54.110;12.138;2023-04-01T00:17:39;3.80;;;3.43;;
16480;SDS011;44634;54.110;12.138;2023-04-01T00:20:09;4.63;;;3.30;;
16480;SDS011;44634;54.110;12.138;2023-04-01T00:22:37;3.37;;;3.07;;
16480;SDS011;44634;54.110;12.138;2023-04-01T00:25:05;3.43;;;3.20;;
16480;SDS011;44634;54.110;12.138;2023-04-01T00:27:34;4.40;;;3.37;;
16480;SDS011;44634;54.110;12.138;2023-04-01T00:30:02;3.13;;;2.90;;
16480;SDS011;44634;54.110;12.138;2023-04-01T00:32:31;3.47;;;3.17;;
16480;SDS011;44634;54.110;12.138;2023-04-01T00:34:59;3.60;;;3.30;;
16480;SDS011;44634;54.110;12.138;2023-04-01T00:37:29;4.33;;;3.10;;
16480;SDS011;44634;54.110;12.138;2023-04-01T00:39:57;3.80;;;3.43;;
16480;SDS011;44634;54.110;12.138;2023-04-01T00:42:25;4.23;;;3.83;;
16480;SDS011;44634;54.110;12.138;2023-04-01T00:44:53;3.80;;;3.50;;
16480;SDS011;44634;54.110;12.138;2023-04-01T00:47:22;5.10;;;3.80;;
16480;SDS011;44634;54.110;12.138;2023-04-01T00:49:52;5.97;;;3.67;;
16480;SDS011;44634;54.110;12.138;2023-04-01T00:52:22;3.33;;;3.00;;
16480;SDS011;44634;54.110;12.138;2023-04-01T00:54:54;4.07;;;2.90;;
16480;SDS011;44634;54.110;12.138;2023-04-01T00:57:25;6.73;;;3.90;;
16480;SDS011;44634;54.110;12.138;2023-04-01T00:59:58;4.03;;;3.63;;
16480;SDS011;44634;54.110;12.138;2023-04-01T01:02:26;4.70;;;3.77;;
16480;SDS011;44634;54.110;12.138;2023-04-01T01:04:54;4.70;;;3.83;;
16480;SDS011;44634;54.110;12.138;2023-04-01T01:07:24;3.83;;;3.53;;
16480;SDS011;44634;54.110;12.138;2023-04-01T01:10:03;3.67;;;3.37;;
16480;SDS011;44634;54.110;12.138;2023-04-01T01:12:39;3.60;;;3.40;;
16480;SDS011;44634;54.110;12.138;2023-04-01T01:15:13;3.63;;;3.03;;
16480;SDS011;44634;54.110;12.138;2023-04-01T01:17:52;4.70;;;3.97;;
16480;SDS011;44634;54.110;12.138;2023-04-01T01:26:54;3.83;;;3.37;;
16480;SDS011;44634;54.110;12.138;2023-04-01T01:29:45;3.77;;;3.47;;
16480;SDS011;44634;54.110;12.138;2023-04-01T01:32:36;5.30;;;3.43;;
16480;SDS011;44634;54.110;12.138;2023-04-01T01:35:20;6.20;;;3.50;;
16480;SDS011;44634;54.110;12.138;2023-04-01T01:37:52;3.73;;;3.40;;
16480;SDS011;44634;54.110;12.138;2023-04-01T01:40:22;3.93;;;3.63;;
16480;SDS011;44634;54.110;12.138;2023-04-01T01:42:55;3.70;;;3.40;;
16480;SDS011;44634;54.110;12.138;2023-04-01T01:45:27;3.57;;;3.37;;
16480;SDS011;44634;54.110;12.138;2023-04-01T01:47:57;5.40;;;3.87;;
16480;SDS011;44634;54.110;12.138;2023-04-01T01:50:53;4.10;;;3.67;;
16480;SDS011;44634;54.110;12.138;2023-04-01T01:53:44;4.37;;;3.67;;
16480;SDS011;44634;54.110;12.138;2023-04-01T01:56:36;7.63;;;3.90;;
16480;SDS011;44634;54.110;12.138;2023-04-01T01:59:29;4.33;;;3.40;;
16480;SDS011;44634;54.110;12.138;2023-04-01T02:02:23;3.87;;;3.60;;
16480;SDS011;44634;54.110;12.138;2023-04-01T02:05:18;5.47;;;3.67;;
16480;SDS011;44634;54.110;12.138;2023-04-01T02:08:14;4.27;;;3.87;;
16480;SDS011;44634;54.110;12.138;2023-04-01T02:11:10;4.03;;;3.73;;
16480;SDS011;44634;54.110;12.138;2023-04-01T02:14:03;4.20;;;3.80;;
16480;SDS011;44634;54.110;12.138;2023-04-01T02:17:00;4.03;;;3.73;;
16480;SDS011;44634;54.110;12.138;2023-04-01T02:19:56;7.10;;;3.50;;
16480;SDS011;44634;54.110;12.138;2023-04-01T02:22:52;3.37;;;3.07;;
16480;SDS011;44634;54.110;12.138;2023-04-01T02:25:46;4.33;;;3.90;;
16480;SDS011;44634;54.110;12.138;2023-04-01T02:28:38;7.03;;;3.50;;
16480;SDS011;44634;54.110;12.138;2023-04-01T02:31:32;4.40;;;3.60;;
16480;SDS011;44634;54.110;12.138;2023-04-01T02:34:26;3.73;;;3.37;;
16480;SDS011;44634;54.110;12.138;2023-04-01T02:37:17;5.83;;;3.73;;
16480;SDS011;44634;54.110;12.138;2023-04-01T08:04:08;10.23;;;7.30;;
16480;SDS011;44634;54.110;12.138;2023-04-01T08:06:45;9.50;;;6.43;;
16480;SDS011;44634;54.110;12.138;2023-04-01T08:09:20;8.73;;;6.67;;
16480;SDS011;44634;54.110;12.138;2023-04-01T08:11:59;10.37;;;7.07;;
16480;SDS011;44634;54.110;12.138;2023-04-01T08:14:37;11.23;;;7.23;;
16480;SDS011;44634;54.110;12.138;2023-04-01T08:17:16;10.60;;;6.47;;
16480;SDS011;44634;54.110;12.138;2023-04-01T08:19:56;15.00;;;7.13;;
16480;SDS011;44634;54.110;12.138;2023-04-01T08:22:36;8.10;;;6.93;;
16480;SDS011;44634;54.110;12.138;2023-04-01T08:25:09;8.93;;;6.13;;
16480;SDS011;44634;54.110;12.138;2023-04-01T08:27:44;11.43;;;6.80;;
16480;SDS011;44634;54.110;12.138;2023-04-01T08:30:16;10.07;;;6.03;;
16480;SDS011;44634;54.110;12.138;2023-04-01T08:32:48;8.53;;;5.73;;
16480;SDS011;44634;54.110;12.138;2023-04-01T08:35:25;10.43;;;7.10;;
16480;SDS011;44634;54.110;12.138;2023-04-01T08:38:00;10.43;;;6.20;;
16480;SDS011;44634;54.110;12.138;2023-04-01T08:40:39;8.93;;;6.13;;
16480;SDS011;44634;54.110;12.138;2023-04-01T08:43:25;7.50;;;5.03;;
16480;SDS011;44634;54.110;12.138;2023-04-01T08:46:10;9.40;;;5.43;;
16480;SDS011;44634;54.110;12.138;2023-04-01T08:48:59;10.47;;;5.90;;
16480;SDS011;44634;54.110;12.138;2023-04-01T08:51:43;6.10;;;5.20;;
16480;SDS011;44634;54.110;12.138;2023-04-01T08:54:41;10.23;;;6.00;;
16480;SDS011;44634;54.110;12.138;2023-04-01T08:57:19;10.37;;;6.43;;
16480;SDS011;44634;54.110;12.138;2023-04-01T08:59:57;10.77;;;6.80;;
16480;SDS011;44634;54.110;12.138;2023-04-01T09:02:50;12.33;;;7.70;;
16480;SDS011;44634;54.110;12.138;2023-04-01T09:05:58;9.03;;;6.47;;
16480;SDS011;44634;54.110;12.138;2023-04-01T09:08:46;11.10;;;7.00;;
16480;SDS011;44634;54.110;12.138;2023-04-01T09:11:28;9.40;;;6.97;;
16480;SDS011;44634;54.110;12.138;2023-04-01T09:17:30;7.80;;;6.50;;
16480;SDS011;44634;54.110;12.138;2023-04-01T09:20:29;10.57;;;6.53;;
16480;SDS011;44634;54.110;12.138;2023-04-01T09:23:23;8.33;;;6.60;;
16480;SDS011;44634;54.110;12.138;2023-04-01T09:26:10;12.63;;;7.13;;
16480;SDS011;44634;54.110;12.138;2023-04-01T09:28:50;10.47;;;7.03;;
16480;SDS011;44634;54.110;12.138;2023-04-01T09:31:32;9.67;;;6.63;;
16480;SDS011;44634;54.110;12.138;2023-04-01T09:34:30;7.93;;;5.00;;
16480;SDS011;44634;54.110;12.138;2023-04-01T09:37:17;7.67;;;5.13;;
16480;SDS011;44634;54.110;12.138;2023-04-01T09:39:55;7.30;;;5.60;;
16480;SDS011;44634;54.110;12.138;2023-04-01T09:42:43;7.30;;;4.87;;
16480;SDS011;44634;54.110;12.138;2023-04-01T09:45:23;5.93;;;4.50;;
16480;SDS011;44634;54.110;12.138;2023-04-01T09:48:05;10.20;;;4.73;;
16480;SDS011;44634;54.110;12.138;2023-04-01T09:50:44;8.57;;;5.60;;
16480;SDS011;44634;54.110;12.138;2023-04-01T09:53:20;12.27;;;5.30;;
16480;SDS011;44634;54.110;12.138;2023-04-01T09:56:14;8.03;;;4.60;;
16480;SDS011;44634;54.110;12.138;2023-04-01T10:05:34;12.27;;;4.77;;
16480;SDS011;44634;54.110;12.138;2023-04-01T10:08:47;10.20;;;5.33;;
16480;SDS011;44634;54.110;12.138;2023-04-01T10:14:37;8.73;;;5.30;;
16480;SDS011;44634;54.110;12.138;2023-04-01T10:17:35;5.27;;;4.07;;
16480;SDS011;44634;54.110;12.138;2023-04-01T10:20:20;5.93;;;4.17;;
16480;SDS011;44634;54.110;12.138;2023-04-01T10:23:22;9.03;;;5.07;;
16480;SDS011;44634;54.110;12.138;2023-04-01T10:26:19;7.80;;;5.37;;
16480;SDS011;44634;54.110;12.138;2023-04-01T10:35:28;9.90;;;5.13;;
16480;SDS011;44634;54.110;12.138;2023-04-01T10:38:28;6.93;;;4.80;;
16480;SDS011;44634;54.110;12.138;2023-04-01T10:41:23;8.37;;;4.83;;
16480;SDS011;44634;54.110;12.138;2023-04-01T10:44:25;8.43;;;5.10;;
16480;SDS011;44634;54.110;12.138;2023-04-01T10:47:18;8.00;;;6.10;;
16480;SDS011;44634;54.110;12.138;2023-04-01T10:50:10;11.40;;;6.17;;
16480;SDS011;44634;54.110;12.138;2023-04-01T11:02:14;11.90;;;5.53;;
16480;SDS011;44634;54.110;12.138;2023-04-01T11:11:49;8.93;;;5.67;;
16480;SDS011;44634;54.110;12.138;2023-04-01T11:17:38;8.03;;;6.17;;
16480;SDS011;44634;54.110;12.138;2023-04-01T11:26:32;7.70;;;5.13;;
16480;SDS011;44634;54.110;12.138;2023-04-01T11:29:18;10.70;;;5.67;;
16480;SDS011;44634;54.110;12.138;2023-04-01T11:32:21;7.83;;;4.70;;
16480;SDS011;44634;54.110;12.138;2023-04-01T11:35:12;5.10;;;4.00;;
16480;SDS011;44634;54.110;12.138;2023-04-01T11:37:54;7.30;;;4.00;;
16480;SDS011;44634;54.110;12.138;2023-04-01T11:40:31;5.13;;;4.40;;
16480;SDS011;44634;54.110;12.138;2023-04-01T11:43:07;9.97;;;4.80;;
16480;SDS011;44634;54.110;12.138;2023-04-01T11:45:58;8.70;;;4.70;;
16480;SDS011;44634;54.110;12.138;2023-04-01T11:48:40;5.43;;;4.20;;
16480;SDS011;44634;54.110;12.138;2023-04-01T11:51:31;7.00;;;4.90;;
16480;SDS011;44634;54.110;12.138;2023-04-01T11:54:11;7.90;;;4.57;;
16480;SDS011;44634;54.110;12.138;2023-04-01T11:56:58;9.40;;;4.70;;
16480;SDS011;44634;54.110;12.138;2023-04-01T11:59:38;6.10;;;4.03;;
16480;SDS011;44634;54.110;12.138;2023-04-01T12:02:25;8.30;;;4.83;;
16480;SDS011;44634;54.110;12.138;2023-04-01T12:05:12;7.80;;;3.83;;
16480;SDS011;44634;54.110;12.138;2023-04-01T12:07:55;6.07;;;4.37;;
16480;SDS011;44634;54.110;12.138;2023-04-01T12:10:33;4.87;;;4.20;;
16480;SDS011;44634;54.110;12.138;2023-04-01T12:13:10;7.50;;;3.93;;
16480;SDS011;44634;54.110;12.138;2023-04-01T12:15:53;6.93;;;4.63;;
16480;SDS011;44634;54.110;12.138;2023-04-01T12:18:31;7.97;;;4.37;;
16480;SDS011;44634;54.110;12.138;2023-04-01T12:21:09;5.57;;;3.70;;
16480;SDS011;44634;54.110;12.138;2023-04-01T12:23:54;6.77;;;4.07;;
16480;SDS011;44634;54.110;12.138;2023-04-01T12:26:43;5.13;;;3.97;;
16480;SDS011;44634;54.110;12.138;2023-04-01T12:29:28;5.20;;;3.47;;
16480;SDS011;44634;54.110;12.138;2023-04-01T12:32:19;5.07;;;3.40;;
16480;SDS011;44634;54.110;12.138;2023-04-01T12:35:03;4.93;;;3.33;;
16480;SDS011;44634;54.110;12.138;2023-04-01T12:37:41;7.17;;;3.73;;
16480;SDS011;44634;54.110;12.138;2023-04-01T12:40:26;5.33;;;3.10;;
16480;SDS011;44634;54.110;12.138;2023-04-01T12:43:12;6.67;;;4.07;;
16480;SDS011;44634;54.110;12.138;2023-04-01T12:45:54;7.30;;;4.40;;
16480;SDS011;44634;54.110;12.138;2023-04-01T12:48:34;5.77;;;3.97;;
16480;SDS011;44634;54.110;12.138;2023-04-01T12:51:26;5.03;;;3.43;;
16480;SDS011;44634;54.110;12.138;2023-04-01T12:54:08;3.63;;;3.20;;
16480;SDS011;44634;54.110;12.138;2023-04-01T12:56:49;6.63;;;3.23;;
16480;SDS011;44634;54.110;12.138;2023-04-01T12:59:35;6.30;;;3.50;;
16480;SDS011;44634;54.110;12.138;2023-04-01T13:02:19;6.40;;;3.13;;
16480;SDS011;44634;54.110;12.138;2023-04-01T13:05:15;4.93;;;3.47;;
16480;SDS011;44634;54.110;12.138;2023-04-01T13:07:59;4.87;;;3.37;;
16480;SDS011;44634;54.110;12.138;2023-04-01T13:10:46;5.03;;;3.03;;
16480;SDS011;44634;54.110;12.138;2023-04-01T13:13:31;4.87;;;3.10;;
16480;SDS011;44634;54.110;12.138;2023-04-01T13:16:08;7.47;;;2.80;;
16480;SDS011;44634;54.110;12.138;2023-04-01T13:18:47;5.53;;;3.40;;
16480;SDS011;44634;54.110;12.138;2023-04-01T13:21:26;4.13;;;3.07;;
16480;SDS011;44634;54.110;12.138;2023-04-01T13:24:19;4.57;;;3.17;;
16480;SDS011;44634;54.110;12.138;2023-04-01T13:26:59;3.80;;;2.67;;
16480;SDS011;44634;54.110;12.138;2023-04-01T13:29:34;3.80;;;3.10;;
16480;SDS011;44634;54.110;12.138;2023-04-01T13:32:11;3.63;;;3.30;;
16480;SDS011;44634;54.110;12.138;2023-04-01T13:35:10;3.60;;;3.20;;
16480;SDS011;44634;54.110;12.138;2023-04-01T13:37:52;4.77;;;2.63;;
16480;SDS011;44634;54.110;12.138;2023-04-01T13:40:33;2.80;;;2.43;;
16480;SDS011;44634;54.110;12.138;2023-04-01T13:43:11;3.63;;;2.70;;
16480;SDS011;44634;54.110;12.138;2023-04-01T13:46:04;3.93;;;2.60;;
16480;SDS011;44634;54.110;12.138;2023-04-01T13:49:01;2.43;;;2.27;;
16480;SDS011;44634;54.110;12.138;2023-04-01T13:51:53;6.40;;;2.40;;
16480;SDS011;44634;54.110;12.138;2023-04-01T13:54:48;4.60;;;3.07;;
16480;SDS011;44634;54.110;12.138;2023-04-01T13:57:31;3.00;;;2.80;;
16480;SDS011;44634;54.110;12.138;2023-04-01T14:00:20;2.60;;;2.43;;
16480;SDS011;44634;54.110;12.138;2023-04-01T14:03:00;4.93;;;2.40;;
16480;SDS011;44634;54.110;12.138;2023-04-01T14:05:50;2.83;;;2.53;;
16480;SDS011;44634;54.110;12.138;2023-04-01T14:08:26;3.53;;;2.63;;
16480;SDS011;44634;54.110;12.138;2023-04-01T14:11:15;2.73;;;2.33;;
16480;SDS011;44634;54.110;12.138;2023-04-01T14:13:50;2.93;;;2.63;;
16480;SDS011;44634;54.110;12.138;2023-04-01T14:16:49;4.10;;;2.60;;
16480;SDS011;44634;54.110;12.138;2023-04-01T14:19:51;2.70;;;2.50;;
16480;SDS011;44634;54.110;12.138;2023-04-01T14:22:36;2.90;;;2.27;;
16480;SDS011;44634;54.110;12.138;2023-04-01T14:25:18;2.40;;;2.20;;
16480;SDS011;44634;54.110;12.138;2023-04-01T14:28:03;3.67;;;2.03;;
16480;SDS011;44634;54.110;12.138;2023-04-01T14:33:45;2.33;;;2.23;;
16480;SDS011;44634;54.110;12.138;2023-04-01T14:36:35;6.97;;;2.70;;
16480;SDS011;44634;54.110;12.138;2023-04-01T14:39:18;2.33;;;1.70;;
16480;SDS011;44634;54.110;12.138;2023-04-01T14:42:01;2.43;;;1.90;;
16480;SDS011;44634;54.110;12.138;2023-04-01T14:44:57;4.13;;;2.30;;
16480;SDS011;44634;54.110;12.138;2023-04-01T14:47:42;4.40;;;2.10;;
16480;SDS011;44634;54.110;12.138;2023-04-01T14:50:14;2.07;;;1.90;;
16480;SDS011;44634;54.110;12.138;2023-04-01T14:52:49;2.90;;;1.70;;
16480;SDS011;44634;54.110;12.138;2023-04-01T14:55:28;8.27;;;5.40;;
16480;SDS011;44634;54.110;12.138;2023-04-01T14:58:04;1.70;;;1.60;;
16480;SDS011;44634;54.110;12.138;2023-04-01T15:00:47;6.67;;;2.70;;
16480;SDS011;44634;54.110;12.138;2023-04-01T15:03:23;1.60;;;1.50;;
16480;SDS011;44634;54.110;12.138;2023-04-01T15:06:01;3.90;;;2.43;;
16480;SDS011;44634;54.110;12.138;2023-04-01T15:08:56;2.33;;;2.20;;
16480;SDS011;44634;54.110;12.138;2023-04-01T15:11:37;2.80;;;1.60;;
16480;SDS011;44634;54.110;12.138;2023-04-01T15:14:30;2.17;;;1.97;;
16480;SDS011;44634;54.110;12.138;2023-04-01T15:23:15;2.17;;;2.03;;
16480;SDS011;44634;54.110;12.138;2023-04-01T15:26:06;2.50;;;2.30;;
16480;SDS011;44634;54.110;12.138;2023-04-01T15:28:45;2.10;;;1.67;;
16480;SDS011;44634;54.110;12.138;2023-04-01T15:31:24;4.90;;;1.93;;
16480;SDS011;44634;54.110;12.138;2023-04-01T15:34:03;2.60;;;2.40;;
16480;SDS011;44634;54.110;12.138;2023-04-01T15:36:46;3.07;;;2.37;;
16480;SDS011;44634;54.110;12.138;2023-04-01T15:39:23;2.03;;;1.80;;
16480;SDS011;44634;54.110;12.138;2023-04-01T15:42:08;5.33;;;2.30;;
16480;SDS011;44634;54.110;12.138;2023-04-01T15:44:51;3.90;;;2.10;;
16480;SDS011;44634;54.110;12.138;2023-04-01T15:47:31;4.20;;;2.20;;
16480;SDS011;44634;54.110;12.138;2023-04-01T15:53:07;3.13;;;2.30;;
16480;SDS011;44634;54.110;12.138;2023-04-01T15:55:45;2.43;;;1.90;;
16480;SDS011;44634;54.110;12.138;2023-04-01T15:58:22;3.70;;;2.67;;
16480;SDS011;44634;54.110;12.138;2023-04-01T16:01:03;4.03;;;2.20;;
16480;SDS011;44634;54.110;12.138;2023-04-01T16:03:45;2.63;;;2.10;;
16480;SDS011;44634;54.110;12.138;2023-04-01T16:06:24;4.27;;;2.47;;
16480;SDS011;44634;54.110;12.138;2023-04-01T16:09:06;3.23;;;2.00;;
16480;SDS011;44634;54.110;12.138;2023-04-01T16:11:48;2.00;;;1.80;;
16480;SDS011;44634;54.110;12.138;2023-04-01T16:14:26;3.10;;;2.20;;
16480;SDS011;44634;54.110;12.138;2023-04-01T16:17:05;4.63;;;2.20;;
16480;SDS011;44634;54.110;12.138;2023-04-01T16:19:49;3.23;;;2.07;;
16480;SDS011;44634;54.110;12.138;2023-04-01T16:22:21;3.73;;;2.37;;
16480;SDS011;44634;54.110;12.138;2023-04-01T16:24:55;3.43;;;2.00;;
16480;SDS011;44634;54.110;12.138;2023-04-01T16:27:40;6.27;;;2.00;;
16480;SDS011;44634;54.110;12.138;2023-04-01T16:30:35;3.90;;;2.10;;
16480;SDS011;44634;54.110;12.138;2023-04-01T16:33:04;3.30;;;2.07;;
16480;SDS011;44634;54.110;12.138;2023-04-01T16:35:42;3.83;;;2.10;;
16480;SDS011;44634;54.110;12.138;2023-04-01T16:38:16;2.10;;;2.00;;
16480;SDS011;44634;54.110;12.138;2023-04-01T16:40:52;2.13;;;1.93;;
16480;SDS011;44634;54.110;12.138;2023-04-01T16:43:28;3.03;;;1.60;;
16480;SDS011;44634;54.110;12.138;2023-04-01T16:46:18;3.57;;;2.00;;
16480;SDS011;44634;54.110;12.138;2023-04-01T16:48:58;3.83;;;1.80;;
16480;SDS011;44634;54.110;12.138;2023-04-01T16:51:53;6.03;;;2.27;;
16480;SDS011;44634;54.110;12.138;2023-04-01T16:54:28;4.53;;;2.10;;
16480;SDS011;44634;54.110;12.138;2023-04-01T16:57:03;2.20;;;1.93;;
16480;SDS011;44634;54.110;12.138;2023-04-01T16:59:45;1.47;;;1.47;;
16480;SDS011;44634;54.110;12.138;2023-04-01T17:02:23;2.93;;;1.60;;
16480;SDS011;44634;54.110;12.138;2023-04-01T17:04:56;2.73;;;1.90;;
16480;SDS011;44634;54.110;12.138;2023-04-01T17:07:30;1.77;;;1.67;;
16480;SDS011;44634;54.110;12.138;2023-04-01T17:13:19;3.03;;;2.20;;
16480;SDS011;44634;54.110;12.138;2023-04-01T17:15:58;2.27;;;2.07;;
16480;SDS011;44634;54.110;12.138;2023-04-01T17:18:37;3.23;;;2.30;;
16480;SDS011;44634;54.110;12.138;2023-04-01T17:21:15;3.83;;;2.23;;
16480;SDS011;44634;54.110;12.138;2023-04-01T17:23:48;3.87;;;1.97;;
16480;SDS011;44634;54.110;12.138;2023-04-01T17:26:22;2.53;;;2.33;;
16480;SDS011;44634;54.110;12.138;2023-04-01T17:29:00;2.30;;;2.10;;
16480;SDS011;44634;54.110;12.138;2023-04-01T17:31:42;3.57;;;2.20;;
16480;SDS011;44634;54.110;12.138;2023-04-01T17:37:09;3.07;;;2.07;;
16480;SDS011;44634;54.110;12.138;2023-04-01T17:39:51;2.83;;;1.97;;
16480;SDS011;44634;54.110;12.138;2023-04-01T17:42:34;3.33;;;1.97;;
16480;SDS011;44634;54.110;12.138;2023-04-01T17:45:10;3.00;;;1.57;;
16480;SDS011;44634;54.110;12.138;2023-04-01T17:47:49;3.40;;;2.33;;
16480;SDS011;44634;54.110;12.138;2023-04-01T17:50:30;2.53;;;1.90;;
16480;SDS011;44634;54.110;12.138;2023-04-01T17:53:14;1.97;;;1.87;;
16480;SDS011;44634;54.110;12.138;2023-04-01T17:55:59;1.80;;;1.70;;
16480;SDS011;44634;54.110;12.138;2023-04-01T17:58:39;4.07;;;1.90;;
16480;SDS011;44634;54.110;12.138;2023-04-01T18:01:17;3.30;;;2.13;;
16480;SDS011;44634;54.110;12.138;2023-04-01T18:04:02;3.23;;;1.80;;
16480;SDS011;44634;54.110;12.138;2023-04-01T18:06:50;3.63;;;2.20;;
16480;SDS011;44634;54.110;12.138;2023-04-01T18:09:37;1.90;;;1.80;;
16480;SDS011;44634;54.110;12.138;2023-04-01T18:12:16;2.87;;;2.00;;
16480;SDS011;44634;54.110;12.138;2023-04-01T18:14:59;2.77;;;1.90;;
16480;SDS011;44634;54.110;12.138;2023-04-01T18:17:40;4.67;;;1.70;;
16480;SDS011;44634;54.110;12.138;2023-04-01T18:20:19;2.23;;;1.47;;
16480;SDS011;44634;54.110;12.138;2023-04-01T18:23:02;2.37;;;1.60;;
16480;SDS011;44634;54.110;12.138;2023-04-01T18:25:34;1.27;;;1.27;;
16480;SDS011;44634;54.110;12.138;2023-04-01T18:28:14;5.43;;;1.87;;
16480;SDS011;44634;54.110;12.138;2023-04-01T18:30:50;2.17;;;1.37;;
16480;SDS011;44634;54.110;12.138;2023-04-01T18:33:23;3.37;;;1.47;;
16480;SDS011;44634;54.110;12.138;2023-04-01T18:35:58;2.30;;;1.20;;
16480;SDS011;44634;54.110;12.138;2023-04-01T18:38:39;3.23;;;1.73;;
16480;SDS011;44634;54.110;12.138;2023-04-01T18:41:13;3.07;;;1.77;;
16480;SDS011;44634;54.110;12.138;2023-04-01T18:43:46;4.80;;;1.63;;
16480;SDS011;44634;54.110;12.138;2023-04-01T18:46:26;2.50;;;1.30;;
16480;SDS011;44634;54.110;12.138;2023-04-01T18:49:05;1.67;;;1.57;;
16480;SDS011;44634;54.110;12.138;2023-04-01T18:51:41;2.17;;;1.20;;
16480;SDS011;44634;54.110;12.138;2023-04-01T18:54:19;5.70;;;2.23;;
16480;SDS011;44634;54.110;12.138;2023-04-01T18:56:58;1.40;;;1.40;;
16480;SDS011;44634;54.110;12.138;2023-04-01T18:59:32;1.30;;;1.20;;
16480;SDS011;44634;54.110;12.138;2023-04-01T19:02:10;1.93;;;1.20;;
16480;SDS011;44634;54.110;12.138;2023-04-01T19:04:45;2.57;;;1.40;;
16480;SDS011;44634;54.110;12.138;2023-04-01T19:07:30;4.03;;;1.50;;
16480;SDS011;44634;54.110;12.138;2023-04-01T19:10:15;1.80;;;0.97;;
16480;SDS011;44634;54.110;12.138;2023-04-01T19:12:49;2.27;;;1.20;;
16480;SDS011;44634;54.110;12.138;2023-04-01T19:15:34;5.80;;;1.27;;
16480;SDS011;44634;54.110;12.138;2023-04-01T19:18:17;2.10;;;1.57;;
16480;SDS011;44634;54.110;12.138;2023-04-01T19:20:59;2.77;;;1.43;;
16480;SDS011;44634;54.110;12.138;2023-04-01T19:26:33;2.27;;;1.60;;
16480;SDS011;44634;54.110;12.138;2023-04-01T19:29:06;1.97;;;1.20;;
16480;SDS011;44634;54.110;12.138;2023-04-01T19:31:50;7.70;;;1.20;;
16480;SDS011;44634;54.110;12.138;2023-04-01T19:34:27;1.77;;;1.17;;
16480;SDS011;44634;54.110;12.138;2023-04-01T19:37:10;3.37;;;1.30;;
16480;SDS011;44634;54.110;12.138;2023-04-01T19:39:48;1.97;;;1.17;;
16480;SDS011;44634;54.110;12.138;2023-04-01T19:42:27;1.30;;;1.20;;
16480;SDS011;44634;54.110;12.138;2023-04-01T19:45:07;1.40;;;1.30;;
16480;SDS011;44634;54.110;12.138;2023-04-01T19:47:51;2.40;;;1.20;;
16480;SDS011;44634;54.110;12.138;2023-04-01T19:50:29;2.37;;;1.30;;
16480;SDS011;44634;54.110;12.138;2023-04-01T19:53:06;3.90;;;1.57;;
16480;SDS011;44634;54.110;12.138;2023-04-01T19:55:45;3.57;;;2.03;;
16480;SDS011;44634;54.110;12.138;2023-04-01T19:58:20;2.07;;;1.40;;
16480;SDS011;44634;54.110;12.138;2023-04-01T20:00:57;2.97;;;1.33;;
16480;SDS011;44634;54.110;12.138;2023-04-01T20:03:30;3.90;;;1.47;;
16480;SDS011;44634;54.110;12.138;2023-04-01T20:06:07;3.23;;;1.00;;
16480;SDS011;44634;54.110;12.138;2023-04-01T20:08:45;1.27;;;1.20;;
16480;SDS011;44634;54.110;12.138;2023-04-01T20:11:28;3.30;;;1.50;;
16480;SDS011;44634;54.110;12.138;2023-04-01T20:14:09;3.10;;;1.20;;
16480;SDS011;44634;54.110;12.138;2023-04-01T20:16:48;3.40;;;1.40;;
16480;SDS011;44634;54.110;12.138;2023-04-01T20:19:24;1.53;;;1.00;;
16480;SDS011;44634;54.110;12.138;2023-04-01T20:21:56;2.03;;;1.40;;
16480;SDS011;44634;54.110;12.138;2023-04-01T20:24:28;4.87;;;1.53;;
16480;SDS011;44634;54.110;12.138;2023-04-01T20:27:00;2.07;;;1.43;;
16480;SDS011;44634;54.110;12.138;2023-04-01T20:29:37;1.47;;;1.00;;
16480;SDS011;44634;54.110;12.138;2023-04-01T20:32:18;1.97;;;1.20;;
16480;SDS011;44634;54.110;12.138;2023-04-01T20:38:12;2.23;;;1.23;;
16480;SDS011;44634;54.110;12.138;2023-04-01T20:40:53;3.40;;;1.20;;
16480;SDS011;44634;54.110;12.138;2023-04-01T20:43:33;2.77;;;1.23;;
16480;SDS011;44634;54.110;12.138;2023-04-01T20:46:22;3.30;;;1.50;;
16480;SDS011;44634;54.110;12.138;2023-04-01T20:51:47;1.10;;;1.00;;
16480;SDS011;44634;54.110;12.138;2023-04-01T20:54:26;1.17;;;1.03;;
16480;SDS011;44634;54.110;12.138;2023-04-01T20:57:09;2.33;;;1.13;;
16480;SDS011;44634;54.110;12.138;2023-04-01T20:59:44;2.03;;;1.00;;
16480;SDS011;44634;54.110;12.138;2023-04-01T21:02:29;2.03;;;1.83;;
16480;SDS011;44634;54.110;12.138;2023-04-01T21:05:30;2.80;;;1.40;;
16480;SDS011;44634;54.110;12.138;2023-04-01T21:08:14;1.20;;;1.10;;
16480;SDS011;44634;54.110;12.138;2023-04-01T21:10:56;3.27;;;1.10;;
16480;SDS011;44634;54.110;12.138;2023-04-01T21:13:34;1.67;;;1.30;;
16480;SDS011;44634;54.110;12.138;2023-04-01T21:16:15;4.50;;;1.40;;
16480;SDS011;44634;54.110;12.138;2023-04-01T21:19:07;3.13;;;1.70;;
16480;SDS011;44634;54.110;12.138;2023-04-01T21:21:50;2.43;;;1.37;;
16480;SDS011;44634;54.110;12.138;2023-04-01T21:24:39;4.17;;;1.33;;
16480;SDS011;44634;54.110;12.138;2023-04-01T21:30:24;3.23;;;1.23;;
16480;SDS011;44634;54.110;12.138;2023-04-01T21:33:07;4.13;;;1.37;;
16480;SDS011;44634;54.110;12.138;2023-04-01T21:35:47;2.23;;;1.23;;
16480;SDS011;44634;54.110;12.138;2023-04-01T21:38:29;1.20;;;1.17;;
16480;SDS011;44634;54.110;12.138;2023-04-01T21:44:13;3.53;;;1.20;;
16480;SDS011;44634;54.110;12.138;2023-04-01T21:47:08;3.10;;;1.20;;
16480;SDS011;44634;54.110;12.138;2023-04-01T21:56:15;4.63;;;1.27;;
16480;SDS011;44634;54.110;12.138;2023-04-01T21:59:13;4.23;;;1.60;;
16480;SDS011;44634;54.110;12.138;2023-04-01T22:02:00;1.57;;;1.10;;
16480;SDS011;44634;54.110;12.138;2023-04-01T22:04:48;2.23;;;1.03;;
16480;SDS011;44634;54.110;12.138;2023-04-01T22:07:25;6.83;;;2.90;;
16480;SDS011;44634;54.110;12.138;2023-04-01T22:10:03;5.17;;;1.50;;
16480;SDS011;44634;54.110;12.138;2023-04-01T22:12:42;4.10;;;1.50;;
16480;SDS011;44634;54.110;12.138;2023-04-01T22:15:19;3.77;;;1.10;;
16480;SDS011;44634;54.110;12.138;2023-04-01T22:17:56;3.43;;;1.40;;
16480;SDS011;44634;54.110;12.138;2023-04-01T22:20:31;2.00;;;1.17;;
16480;SDS011;44634;54.110;12.138;2023-04-01T22:23:10;3.07;;;0.90;;
16480;SDS011;44634;54.110;12.138;2023-04-01T22:25:49;3.63;;;1.00;;
16480;SDS011;44634;54.110;12.138;2023-04-01T22:28:26;2.20;;;1.30;;
16480;SDS011;44634;54.110;12.138;2023-04-01T22:30:59;3.80;;;1.17;;
16480;SDS011;44634;54.110;12.138;2023-04-01T22:33:29;2.93;;;1.20;;
16480;SDS011;44634;54.110;12.138;2023-04-01T22:36:03;3.80;;;1.43;;
16480;SDS011;44634;54.110;12.138;2023-04-01T22:38:43;1.23;;;1.20;;
16480;SDS011;44634;54.110;12.138;2023-04-01T22:41:27;4.30;;;1.13;;
16480;SDS011;44634;54.110;12.138;2023-04-01T22:44:08;2.03;;;1.30;;
16480;SDS011;44634;54.110;12.138;2023-04-01T22:46:50;2.83;;;1.23;;
16480;SDS011;44634;54.110;12.138;2023-04-01T22:49:26;2.73;;;1.30;;
16480;SDS011;44634;54.110;12.138;2023-04-01T22:52:01;3.33;;;1.03;;